<?xml version="1.0" encoding="UTF-8" standalone="no" ?>
<gpx xmlns="http://www.topografix.com/GPX/1/1" xmlns:xsi="http://www.w3.org/2001/XMLSchema-instance" xsi:schemaLocation="http://www.topografix.com/GPX/1/1 http://www.topografix.com/GPX/1/1/gpx.xsd" version="1.1" creator="VisuGPX - https://www.visugpx.com">
  <metadata>
    <name>2021-01-17- Pomérols - Pinet</name>
    <desc><![CDATA[Petite balade dans les vignes.
Aucune difficulté mais, malheureusement, beaucoup de bitume.
[b]Attention[/b] : au kilomètre 3.87, il y a un portail non signalé fermé par une chaîne non cadenassée.]]></desc>
  </metadata>
  <trk>
    <name><![CDATA[A021-01-17 11:54:19]]></name>
    <trkseg>
      <trkpt lat="43.3953" lon="3.5092">
        <ele>45.8</ele>
        <time>2021-01-17T08:55:50Z</time>
      </trkpt>
      <trkpt lat="43.39518" lon="3.50945">
        <ele>45.8</ele>
        <time>2021-01-17T08:56:08Z</time>
      </trkpt>
      <trkpt lat="43.39513" lon="3.50974">
        <ele>44.84</ele>
        <time>2021-01-17T08:56:27Z</time>
      </trkpt>
      <trkpt lat="43.39514" lon="3.50975">
        <ele>44.36</ele>
        <time>2021-01-17T08:56:34Z</time>
      </trkpt>
      <trkpt lat="43.3953" lon="3.50996">
        <ele>43.88</ele>
        <time>2021-01-17T08:56:53Z</time>
      </trkpt>
      <trkpt lat="43.39539" lon="3.5101">
        <ele>43.88</ele>
        <time>2021-01-17T08:57:07Z</time>
      </trkpt>
      <trkpt lat="43.39563" lon="3.51029">
        <ele>42.44</ele>
        <time>2021-01-17T08:57:29Z</time>
      </trkpt>
      <trkpt lat="43.39579" lon="3.51045">
        <ele>40.99</ele>
        <time>2021-01-17T08:57:46Z</time>
      </trkpt>
      <trkpt lat="43.39581" lon="3.51047">
        <ele>40.99</ele>
        <time>2021-01-17T08:57:48Z</time>
      </trkpt>
      <trkpt lat="43.39593" lon="3.51068">
        <ele>38.11</ele>
        <time>2021-01-17T08:58:06Z</time>
      </trkpt>
      <trkpt lat="43.39601" lon="3.51084">
        <ele>36.19</ele>
        <time>2021-01-17T08:58:18Z</time>
      </trkpt>
      <trkpt lat="43.39616" lon="3.5111">
        <ele>32.82</ele>
        <time>2021-01-17T08:58:37Z</time>
      </trkpt>
      <trkpt lat="43.3963" lon="3.51135">
        <ele>30.42</ele>
        <time>2021-01-17T08:58:57Z</time>
      </trkpt>
      <trkpt lat="43.39645" lon="3.51154">
        <ele>28.5</ele>
        <time>2021-01-17T08:59:14Z</time>
      </trkpt>
      <trkpt lat="43.39655" lon="3.51166">
        <ele>27.53</ele>
        <time>2021-01-17T08:59:25Z</time>
      </trkpt>
      <trkpt lat="43.39659" lon="3.51172">
        <ele>26.57</ele>
        <time>2021-01-17T08:59:30Z</time>
      </trkpt>
      <trkpt lat="43.39677" lon="3.51197">
        <ele>24.65</ele>
        <time>2021-01-17T08:59:51Z</time>
      </trkpt>
      <trkpt lat="43.39694" lon="3.51216">
        <ele>22.73</ele>
        <time>2021-01-17T09:00:09Z</time>
      </trkpt>
      <trkpt lat="43.39712" lon="3.51238">
        <ele>21.77</ele>
        <time>2021-01-17T09:00:29Z</time>
      </trkpt>
      <trkpt lat="43.39731" lon="3.51262">
        <ele>20.81</ele>
        <time>2021-01-17T09:00:50Z</time>
      </trkpt>
      <trkpt lat="43.3975" lon="3.51284">
        <ele>19.84</ele>
        <time>2021-01-17T09:01:10Z</time>
      </trkpt>
      <trkpt lat="43.39751" lon="3.51285">
        <ele>19.84</ele>
        <time>2021-01-17T09:01:11Z</time>
      </trkpt>
      <trkpt lat="43.39768" lon="3.51308">
        <ele>19.36</ele>
        <time>2021-01-17T09:01:31Z</time>
      </trkpt>
      <trkpt lat="43.39775" lon="3.51321">
        <ele>18.88</ele>
        <time>2021-01-17T09:01:46Z</time>
      </trkpt>
      <trkpt lat="43.39777" lon="3.51325">
        <ele>18.88</ele>
        <time>2021-01-17T09:01:50Z</time>
      </trkpt>
      <trkpt lat="43.39789" lon="3.51345">
        <ele>18.88</ele>
        <time>2021-01-17T09:02:08Z</time>
      </trkpt>
      <trkpt lat="43.39805" lon="3.51369">
        <ele>18.88</ele>
        <time>2021-01-17T09:02:28Z</time>
      </trkpt>
      <trkpt lat="43.39822" lon="3.51393">
        <ele>17.92</ele>
        <time>2021-01-17T09:02:48Z</time>
      </trkpt>
      <trkpt lat="43.39825" lon="3.51395">
        <ele>17.44</ele>
        <time>2021-01-17T09:02:51Z</time>
      </trkpt>
      <trkpt lat="43.39832" lon="3.514">
        <ele>17.44</ele>
        <time>2021-01-17T09:02:57Z</time>
      </trkpt>
      <trkpt lat="43.39852" lon="3.51422">
        <ele>16.96</ele>
        <time>2021-01-17T09:03:17Z</time>
      </trkpt>
      <trkpt lat="43.39866" lon="3.51435">
        <ele>16.48</ele>
        <time>2021-01-17T09:03:32Z</time>
      </trkpt>
      <trkpt lat="43.39876" lon="3.51448">
        <ele>16</ele>
        <time>2021-01-17T09:03:46Z</time>
      </trkpt>
      <trkpt lat="43.39896" lon="3.51448">
        <ele>15.52</ele>
        <time>2021-01-17T09:04:22Z</time>
      </trkpt>
      <trkpt lat="43.39868" lon="3.51439">
        <ele>15.52</ele>
        <time>2021-01-17T09:04:48Z</time>
      </trkpt>
      <trkpt lat="43.39865" lon="3.51437">
        <ele>15.52</ele>
        <time>2021-01-17T09:04:50Z</time>
      </trkpt>
      <trkpt lat="43.39855" lon="3.51439">
        <ele>15.52</ele>
        <time>2021-01-17T09:05:02Z</time>
      </trkpt>
      <trkpt lat="43.3985" lon="3.51444">
        <ele>15.52</ele>
        <time>2021-01-17T09:05:06Z</time>
      </trkpt>
      <trkpt lat="43.39829" lon="3.51464">
        <ele>15.04</ele>
        <time>2021-01-17T09:05:27Z</time>
      </trkpt>
      <trkpt lat="43.39812" lon="3.51486">
        <ele>14.56</ele>
        <time>2021-01-17T09:05:47Z</time>
      </trkpt>
      <trkpt lat="43.39798" lon="3.51508">
        <ele>14.08</ele>
        <time>2021-01-17T09:06:06Z</time>
      </trkpt>
      <trkpt lat="43.39781" lon="3.51525">
        <ele>14.08</ele>
        <time>2021-01-17T09:06:23Z</time>
      </trkpt>
      <trkpt lat="43.39763" lon="3.51544">
        <ele>14.08</ele>
        <time>2021-01-17T09:06:41Z</time>
      </trkpt>
      <trkpt lat="43.39757" lon="3.51551">
        <ele>14.08</ele>
        <time>2021-01-17T09:06:47Z</time>
      </trkpt>
      <trkpt lat="43.39753" lon="3.51545">
        <ele>14.08</ele>
        <time>2021-01-17T09:06:53Z</time>
      </trkpt>
      <trkpt lat="43.3975" lon="3.51545">
        <ele>14.08</ele>
        <time>2021-01-17T09:06:56Z</time>
      </trkpt>
      <trkpt lat="43.39743" lon="3.51561">
        <ele>13.6</ele>
        <time>2021-01-17T09:07:06Z</time>
      </trkpt>
      <trkpt lat="43.39739" lon="3.51571">
        <ele>13.6</ele>
        <time>2021-01-17T09:07:13Z</time>
      </trkpt>
      <trkpt lat="43.39723" lon="3.51591">
        <ele>13.12</ele>
        <time>2021-01-17T09:07:32Z</time>
      </trkpt>
      <trkpt lat="43.39703" lon="3.51614">
        <ele>12.63</ele>
        <time>2021-01-17T09:07:52Z</time>
      </trkpt>
      <trkpt lat="43.39686" lon="3.51634">
        <ele>12.63</ele>
        <time>2021-01-17T09:08:10Z</time>
      </trkpt>
      <trkpt lat="43.39679" lon="3.51644">
        <ele>12.63</ele>
        <time>2021-01-17T09:08:18Z</time>
      </trkpt>
      <trkpt lat="43.39677" lon="3.51648">
        <ele>12.63</ele>
        <time>2021-01-17T09:08:21Z</time>
      </trkpt>
      <trkpt lat="43.39671" lon="3.51665">
        <ele>12.63</ele>
        <time>2021-01-17T09:08:37Z</time>
      </trkpt>
      <trkpt lat="43.39678" lon="3.51673">
        <ele>12.15</ele>
        <time>2021-01-17T09:08:44Z</time>
      </trkpt>
      <trkpt lat="43.39694" lon="3.51699">
        <ele>12.15</ele>
        <time>2021-01-17T09:09:03Z</time>
      </trkpt>
      <trkpt lat="43.39707" lon="3.51723">
        <ele>12.15</ele>
        <time>2021-01-17T09:09:21Z</time>
      </trkpt>
      <trkpt lat="43.39715" lon="3.51756">
        <ele>12.15</ele>
        <time>2021-01-17T09:09:42Z</time>
      </trkpt>
      <trkpt lat="43.39722" lon="3.51786">
        <ele>12.15</ele>
        <time>2021-01-17T09:10:02Z</time>
      </trkpt>
      <trkpt lat="43.39729" lon="3.51808">
        <ele>12.15</ele>
        <time>2021-01-17T09:10:17Z</time>
      </trkpt>
      <trkpt lat="43.39748" lon="3.51826">
        <ele>12.15</ele>
        <time>2021-01-17T09:10:37Z</time>
      </trkpt>
      <trkpt lat="43.39764" lon="3.51817">
        <ele>12.15</ele>
        <time>2021-01-17T09:10:54Z</time>
      </trkpt>
      <trkpt lat="43.39778" lon="3.51809">
        <ele>12.15</ele>
        <time>2021-01-17T09:11:12Z</time>
      </trkpt>
      <trkpt lat="43.39799" lon="3.51797">
        <ele>12.15</ele>
        <time>2021-01-17T09:11:30Z</time>
      </trkpt>
      <trkpt lat="43.39829" lon="3.5178">
        <ele>12.15</ele>
        <time>2021-01-17T09:11:55Z</time>
      </trkpt>
      <trkpt lat="43.39852" lon="3.51766">
        <ele>12.15</ele>
        <time>2021-01-17T09:12:15Z</time>
      </trkpt>
      <trkpt lat="43.39876" lon="3.51753">
        <ele>12.15</ele>
        <time>2021-01-17T09:12:35Z</time>
      </trkpt>
      <trkpt lat="43.39891" lon="3.51744">
        <ele>13.12</ele>
        <time>2021-01-17T09:12:51Z</time>
      </trkpt>
      <trkpt lat="43.39915" lon="3.5173">
        <ele>13.6</ele>
        <time>2021-01-17T09:13:12Z</time>
      </trkpt>
      <trkpt lat="43.39932" lon="3.51728">
        <ele>14.08</ele>
        <time>2021-01-17T09:13:28Z</time>
      </trkpt>
      <trkpt lat="43.39935" lon="3.51738">
        <ele>14.08</ele>
        <time>2021-01-17T09:13:42Z</time>
      </trkpt>
      <trkpt lat="43.39947" lon="3.51765">
        <ele>14.08</ele>
        <time>2021-01-17T09:14:00Z</time>
      </trkpt>
      <trkpt lat="43.39952" lon="3.51773">
        <ele>14.08</ele>
        <time>2021-01-17T09:14:07Z</time>
      </trkpt>
      <trkpt lat="43.39961" lon="3.51776">
        <ele>14.08</ele>
        <time>2021-01-17T09:14:14Z</time>
      </trkpt>
      <trkpt lat="43.39963" lon="3.51775">
        <ele>13.12</ele>
        <time>2021-01-17T09:14:16Z</time>
      </trkpt>
      <trkpt lat="43.39965" lon="3.51774">
        <ele>12.63</ele>
        <time>2021-01-17T09:14:18Z</time>
      </trkpt>
      <trkpt lat="43.39986" lon="3.5176">
        <ele>13.12</ele>
        <time>2021-01-17T09:14:37Z</time>
      </trkpt>
      <trkpt lat="43.40003" lon="3.51751">
        <ele>13.12</ele>
        <time>2021-01-17T09:14:55Z</time>
      </trkpt>
      <trkpt lat="43.40017" lon="3.51745">
        <ele>13.12</ele>
        <time>2021-01-17T09:15:11Z</time>
      </trkpt>
      <trkpt lat="43.4003" lon="3.51742">
        <ele>13.12</ele>
        <time>2021-01-17T09:15:28Z</time>
      </trkpt>
      <trkpt lat="43.40033" lon="3.51739">
        <ele>13.12</ele>
        <time>2021-01-17T09:15:53Z</time>
      </trkpt>
      <trkpt lat="43.40052" lon="3.51728">
        <ele>13.12</ele>
        <time>2021-01-17T09:16:11Z</time>
      </trkpt>
      <trkpt lat="43.40072" lon="3.51709">
        <ele>13.12</ele>
        <time>2021-01-17T09:16:30Z</time>
      </trkpt>
      <trkpt lat="43.40093" lon="3.51687">
        <ele>14.08</ele>
        <time>2021-01-17T09:16:51Z</time>
      </trkpt>
      <trkpt lat="43.40111" lon="3.51668">
        <ele>15.04</ele>
        <time>2021-01-17T09:17:09Z</time>
      </trkpt>
      <trkpt lat="43.40125" lon="3.51652">
        <ele>15.04</ele>
        <time>2021-01-17T09:17:23Z</time>
      </trkpt>
      <trkpt lat="43.4014" lon="3.51635">
        <ele>15.04</ele>
        <time>2021-01-17T09:17:41Z</time>
      </trkpt>
      <trkpt lat="43.4014" lon="3.51634">
        <ele>15.04</ele>
        <time>2021-01-17T09:17:42Z</time>
      </trkpt>
      <trkpt lat="43.40149" lon="3.51624">
        <ele>15.52</ele>
        <time>2021-01-17T09:17:58Z</time>
      </trkpt>
      <trkpt lat="43.40147" lon="3.51629">
        <ele>15.52</ele>
        <time>2021-01-17T09:18:14Z</time>
      </trkpt>
      <trkpt lat="43.40153" lon="3.51621">
        <ele>15.52</ele>
        <time>2021-01-17T09:18:38Z</time>
      </trkpt>
      <trkpt lat="43.40168" lon="3.51605">
        <ele>16</ele>
        <time>2021-01-17T09:18:54Z</time>
      </trkpt>
      <trkpt lat="43.40184" lon="3.51588">
        <ele>16</ele>
        <time>2021-01-17T09:19:12Z</time>
      </trkpt>
      <trkpt lat="43.40196" lon="3.51573">
        <ele>16.48</ele>
        <time>2021-01-17T09:19:28Z</time>
      </trkpt>
      <trkpt lat="43.40209" lon="3.5156">
        <ele>17.44</ele>
        <time>2021-01-17T09:19:42Z</time>
      </trkpt>
      <trkpt lat="43.40218" lon="3.51552">
        <ele>17.44</ele>
        <time>2021-01-17T09:19:57Z</time>
      </trkpt>
      <trkpt lat="43.40224" lon="3.51545">
        <ele>17.92</ele>
        <time>2021-01-17T09:20:14Z</time>
      </trkpt>
      <trkpt lat="43.40226" lon="3.51549">
        <ele>17.92</ele>
        <time>2021-01-17T09:20:40Z</time>
      </trkpt>
      <trkpt lat="43.40225" lon="3.51547">
        <ele>17.92</ele>
        <time>2021-01-17T09:21:12Z</time>
      </trkpt>
      <trkpt lat="43.40225" lon="3.51548">
        <ele>17.92</ele>
        <time>2021-01-17T09:21:26Z</time>
      </trkpt>
      <trkpt lat="43.40222" lon="3.51551">
        <ele>17.92</ele>
        <time>2021-01-17T09:22:02Z</time>
      </trkpt>
      <trkpt lat="43.40223" lon="3.51547">
        <ele>15.04</ele>
        <time>2021-01-17T09:22:19Z</time>
      </trkpt>
      <trkpt lat="43.40224" lon="3.51543">
        <ele>17.44</ele>
        <time>2021-01-17T09:22:40Z</time>
      </trkpt>
      <trkpt lat="43.40228" lon="3.51537">
        <ele>17.44</ele>
        <time>2021-01-17T09:23:07Z</time>
      </trkpt>
      <trkpt lat="43.40237" lon="3.51532">
        <ele>17.44</ele>
        <time>2021-01-17T09:23:24Z</time>
      </trkpt>
      <trkpt lat="43.40243" lon="3.5153">
        <ele>17.44</ele>
        <time>2021-01-17T09:23:30Z</time>
      </trkpt>
      <trkpt lat="43.40264" lon="3.51526">
        <ele>17.92</ele>
        <time>2021-01-17T09:23:48Z</time>
      </trkpt>
      <trkpt lat="43.40286" lon="3.51518">
        <ele>17.92</ele>
        <time>2021-01-17T09:24:06Z</time>
      </trkpt>
      <trkpt lat="43.40306" lon="3.51514">
        <ele>17.92</ele>
        <time>2021-01-17T09:24:24Z</time>
      </trkpt>
      <trkpt lat="43.4033" lon="3.51507">
        <ele>17.92</ele>
        <time>2021-01-17T09:24:44Z</time>
      </trkpt>
      <trkpt lat="43.40354" lon="3.51505">
        <ele>17.92</ele>
        <time>2021-01-17T09:25:04Z</time>
      </trkpt>
      <trkpt lat="43.40375" lon="3.51503">
        <ele>17.92</ele>
        <time>2021-01-17T09:25:22Z</time>
      </trkpt>
      <trkpt lat="43.40399" lon="3.51497">
        <ele>18.4</ele>
        <time>2021-01-17T09:25:42Z</time>
      </trkpt>
      <trkpt lat="43.4042" lon="3.51485">
        <ele>18.4</ele>
        <time>2021-01-17T09:26:00Z</time>
      </trkpt>
      <trkpt lat="43.40441" lon="3.51475">
        <ele>18.88</ele>
        <time>2021-01-17T09:26:19Z</time>
      </trkpt>
      <trkpt lat="43.40459" lon="3.51463">
        <ele>18.88</ele>
        <time>2021-01-17T09:26:36Z</time>
      </trkpt>
      <trkpt lat="43.40477" lon="3.5145">
        <ele>18.88</ele>
        <time>2021-01-17T09:26:54Z</time>
      </trkpt>
      <trkpt lat="43.40487" lon="3.51441">
        <ele>18.88</ele>
        <time>2021-01-17T09:27:06Z</time>
      </trkpt>
      <trkpt lat="43.40494" lon="3.51444">
        <ele>18.88</ele>
        <time>2021-01-17T09:27:19Z</time>
      </trkpt>
      <trkpt lat="43.40494" lon="3.51439">
        <ele>17.92</ele>
        <time>2021-01-17T09:27:57Z</time>
      </trkpt>
      <trkpt lat="43.40503" lon="3.51419">
        <ele>17.92</ele>
        <time>2021-01-17T09:28:12Z</time>
      </trkpt>
      <trkpt lat="43.40505" lon="3.51417">
        <ele>17.92</ele>
        <time>2021-01-17T09:28:14Z</time>
      </trkpt>
      <trkpt lat="43.40529" lon="3.51407">
        <ele>17.92</ele>
        <time>2021-01-17T09:28:33Z</time>
      </trkpt>
      <trkpt lat="43.4055" lon="3.51396">
        <ele>17.92</ele>
        <time>2021-01-17T09:28:52Z</time>
      </trkpt>
      <trkpt lat="43.40565" lon="3.5138">
        <ele>17.92</ele>
        <time>2021-01-17T09:29:11Z</time>
      </trkpt>
      <trkpt lat="43.40571" lon="3.51374">
        <ele>19.84</ele>
        <time>2021-01-17T09:29:40Z</time>
      </trkpt>
      <trkpt lat="43.40588" lon="3.51353">
        <ele>19.84</ele>
        <time>2021-01-17T09:29:59Z</time>
      </trkpt>
      <trkpt lat="43.40602" lon="3.51332">
        <ele>20.32</ele>
        <time>2021-01-17T09:30:16Z</time>
      </trkpt>
      <trkpt lat="43.40614" lon="3.51313">
        <ele>20.81</ele>
        <time>2021-01-17T09:30:32Z</time>
      </trkpt>
      <trkpt lat="43.40627" lon="3.51291">
        <ele>20.81</ele>
        <time>2021-01-17T09:30:49Z</time>
      </trkpt>
      <trkpt lat="43.40643" lon="3.51271">
        <ele>21.29</ele>
        <time>2021-01-17T09:31:07Z</time>
      </trkpt>
      <trkpt lat="43.40655" lon="3.51253">
        <ele>21.29</ele>
        <time>2021-01-17T09:31:23Z</time>
      </trkpt>
      <trkpt lat="43.40674" lon="3.51238">
        <ele>21.77</ele>
        <time>2021-01-17T09:31:41Z</time>
      </trkpt>
      <trkpt lat="43.40693" lon="3.51223">
        <ele>21.77</ele>
        <time>2021-01-17T09:31:59Z</time>
      </trkpt>
      <trkpt lat="43.40711" lon="3.51211">
        <ele>21.77</ele>
        <time>2021-01-17T09:32:15Z</time>
      </trkpt>
      <trkpt lat="43.40721" lon="3.51205">
        <ele>21.77</ele>
        <time>2021-01-17T09:32:23Z</time>
      </trkpt>
      <trkpt lat="43.40741" lon="3.51192">
        <ele>22.25</ele>
        <time>2021-01-17T09:32:42Z</time>
      </trkpt>
      <trkpt lat="43.40753" lon="3.51186">
        <ele>22.73</ele>
        <time>2021-01-17T09:32:55Z</time>
      </trkpt>
      <trkpt lat="43.40762" lon="3.51184">
        <ele>23.21</ele>
        <time>2021-01-17T09:33:19Z</time>
      </trkpt>
      <trkpt lat="43.40762" lon="3.51182">
        <ele>23.21</ele>
        <time>2021-01-17T09:33:26Z</time>
      </trkpt>
      <trkpt lat="43.40756" lon="3.51158">
        <ele>23.21</ele>
        <time>2021-01-17T09:33:41Z</time>
      </trkpt>
      <trkpt lat="43.40749" lon="3.51126">
        <ele>23.69</ele>
        <time>2021-01-17T09:34:00Z</time>
      </trkpt>
      <trkpt lat="43.40743" lon="3.51101">
        <ele>23.69</ele>
        <time>2021-01-17T09:34:16Z</time>
      </trkpt>
      <trkpt lat="43.4074" lon="3.51093">
        <ele>23.69</ele>
        <time>2021-01-17T09:34:22Z</time>
      </trkpt>
      <trkpt lat="43.4074" lon="3.51089">
        <ele>23.69</ele>
        <time>2021-01-17T09:34:24Z</time>
      </trkpt>
      <trkpt lat="43.40741" lon="3.51087">
        <ele>24.17</ele>
        <time>2021-01-17T09:34:26Z</time>
      </trkpt>
      <trkpt lat="43.40758" lon="3.51091">
        <ele>24.17</ele>
        <time>2021-01-17T09:34:42Z</time>
      </trkpt>
      <trkpt lat="43.40763" lon="3.51095">
        <ele>24.17</ele>
        <time>2021-01-17T09:35:00Z</time>
      </trkpt>
      <trkpt lat="43.40776" lon="3.51106">
        <ele>24.17</ele>
        <time>2021-01-17T09:35:16Z</time>
      </trkpt>
      <trkpt lat="43.40793" lon="3.51119">
        <ele>24.17</ele>
        <time>2021-01-17T09:35:31Z</time>
      </trkpt>
      <trkpt lat="43.40814" lon="3.51132">
        <ele>23.21</ele>
        <time>2021-01-17T09:35:50Z</time>
      </trkpt>
      <trkpt lat="43.40841" lon="3.51151">
        <ele>22.73</ele>
        <time>2021-01-17T09:36:14Z</time>
      </trkpt>
      <trkpt lat="43.40861" lon="3.51166">
        <ele>22.25</ele>
        <time>2021-01-17T09:36:32Z</time>
      </trkpt>
      <trkpt lat="43.40881" lon="3.51185">
        <ele>21.29</ele>
        <time>2021-01-17T09:36:52Z</time>
      </trkpt>
      <trkpt lat="43.40897" lon="3.51204">
        <ele>20.81</ele>
        <time>2021-01-17T09:37:09Z</time>
      </trkpt>
      <trkpt lat="43.40918" lon="3.5122">
        <ele>20.81</ele>
        <time>2021-01-17T09:37:28Z</time>
      </trkpt>
      <trkpt lat="43.40944" lon="3.51222">
        <ele>20.81</ele>
        <time>2021-01-17T09:37:48Z</time>
      </trkpt>
      <trkpt lat="43.40969" lon="3.51229">
        <ele>20.81</ele>
        <time>2021-01-17T09:38:08Z</time>
      </trkpt>
      <trkpt lat="43.40992" lon="3.51235">
        <ele>20.81</ele>
        <time>2021-01-17T09:38:28Z</time>
      </trkpt>
      <trkpt lat="43.40997" lon="3.51237">
        <ele>22.25</ele>
        <time>2021-01-17T09:38:46Z</time>
      </trkpt>
      <trkpt lat="43.41009" lon="3.51238">
        <ele>22.25</ele>
        <time>2021-01-17T09:39:11Z</time>
      </trkpt>
      <trkpt lat="43.41018" lon="3.51241">
        <ele>22.73</ele>
        <time>2021-01-17T09:39:29Z</time>
      </trkpt>
      <trkpt lat="43.41041" lon="3.51246">
        <ele>24.17</ele>
        <time>2021-01-17T09:39:47Z</time>
      </trkpt>
      <trkpt lat="43.41063" lon="3.51258">
        <ele>26.09</ele>
        <time>2021-01-17T09:40:07Z</time>
      </trkpt>
      <trkpt lat="43.41086" lon="3.5127">
        <ele>27.05</ele>
        <time>2021-01-17T09:40:26Z</time>
      </trkpt>
      <trkpt lat="43.41109" lon="3.51273">
        <ele>27.05</ele>
        <time>2021-01-17T09:40:45Z</time>
      </trkpt>
      <trkpt lat="43.41137" lon="3.51264">
        <ele>27.05</ele>
        <time>2021-01-17T09:41:08Z</time>
      </trkpt>
      <trkpt lat="43.41165" lon="3.51255">
        <ele>27.05</ele>
        <time>2021-01-17T09:41:30Z</time>
      </trkpt>
      <trkpt lat="43.41191" lon="3.5125">
        <ele>27.53</ele>
        <time>2021-01-17T09:41:50Z</time>
      </trkpt>
      <trkpt lat="43.41214" lon="3.51248">
        <ele>27.53</ele>
        <time>2021-01-17T09:42:10Z</time>
      </trkpt>
      <trkpt lat="43.41228" lon="3.51244">
        <ele>27.53</ele>
        <time>2021-01-17T09:42:25Z</time>
      </trkpt>
      <trkpt lat="43.4123" lon="3.51243">
        <ele>27.53</ele>
        <time>2021-01-17T09:42:27Z</time>
      </trkpt>
      <trkpt lat="43.41262" lon="3.51242">
        <ele>28.02</ele>
        <time>2021-01-17T09:42:55Z</time>
      </trkpt>
      <trkpt lat="43.41277" lon="3.51238">
        <ele>28.5</ele>
        <time>2021-01-17T09:43:11Z</time>
      </trkpt>
      <trkpt lat="43.41304" lon="3.51236">
        <ele>28.98</ele>
        <time>2021-01-17T09:43:31Z</time>
      </trkpt>
      <trkpt lat="43.41332" lon="3.51232">
        <ele>29.94</ele>
        <time>2021-01-17T09:43:52Z</time>
      </trkpt>
      <trkpt lat="43.41354" lon="3.51225">
        <ele>30.9</ele>
        <time>2021-01-17T09:44:10Z</time>
      </trkpt>
      <trkpt lat="43.41376" lon="3.51218">
        <ele>31.86</ele>
        <time>2021-01-17T09:44:29Z</time>
      </trkpt>
      <trkpt lat="43.41403" lon="3.51212">
        <ele>32.82</ele>
        <time>2021-01-17T09:44:52Z</time>
      </trkpt>
      <trkpt lat="43.4141" lon="3.51191">
        <ele>33.78</ele>
        <time>2021-01-17T09:45:07Z</time>
      </trkpt>
      <trkpt lat="43.41408" lon="3.51162">
        <ele>34.26</ele>
        <time>2021-01-17T09:45:24Z</time>
      </trkpt>
      <trkpt lat="43.41404" lon="3.51121">
        <ele>34.74</ele>
        <time>2021-01-17T09:45:47Z</time>
      </trkpt>
      <trkpt lat="43.41404" lon="3.51102">
        <ele>35.23</ele>
        <time>2021-01-17T09:46:00Z</time>
      </trkpt>
      <trkpt lat="43.41401" lon="3.51071">
        <ele>35.23</ele>
        <time>2021-01-17T09:46:18Z</time>
      </trkpt>
      <trkpt lat="43.41397" lon="3.51042">
        <ele>35.71</ele>
        <time>2021-01-17T09:46:35Z</time>
      </trkpt>
      <trkpt lat="43.41394" lon="3.51014">
        <ele>34.26</ele>
        <time>2021-01-17T09:46:52Z</time>
      </trkpt>
      <trkpt lat="43.41391" lon="3.50979">
        <ele>33.78</ele>
        <time>2021-01-17T09:47:12Z</time>
      </trkpt>
      <trkpt lat="43.41392" lon="3.50945">
        <ele>33.3</ele>
        <time>2021-01-17T09:47:32Z</time>
      </trkpt>
      <trkpt lat="43.4139" lon="3.50928">
        <ele>32.82</ele>
        <time>2021-01-17T09:47:45Z</time>
      </trkpt>
      <trkpt lat="43.41389" lon="3.50903">
        <ele>32.34</ele>
        <time>2021-01-17T09:48:00Z</time>
      </trkpt>
      <trkpt lat="43.41389" lon="3.50887">
        <ele>31.38</ele>
        <time>2021-01-17T09:48:15Z</time>
      </trkpt>
      <trkpt lat="43.41388" lon="3.50874">
        <ele>31.38</ele>
        <time>2021-01-17T09:48:38Z</time>
      </trkpt>
      <trkpt lat="43.41388" lon="3.50865">
        <ele>30.9</ele>
        <time>2021-01-17T09:48:55Z</time>
      </trkpt>
      <trkpt lat="43.41386" lon="3.50862">
        <ele>30.9</ele>
        <time>2021-01-17T09:49:40Z</time>
      </trkpt>
      <trkpt lat="43.41388" lon="3.50849">
        <ele>30.9</ele>
        <time>2021-01-17T09:50:01Z</time>
      </trkpt>
      <trkpt lat="43.4139" lon="3.50829">
        <ele>30.42</ele>
        <time>2021-01-17T09:50:17Z</time>
      </trkpt>
      <trkpt lat="43.41393" lon="3.50827">
        <ele>29.94</ele>
        <time>2021-01-17T09:50:29Z</time>
      </trkpt>
      <trkpt lat="43.41394" lon="3.50828">
        <ele>26.57</ele>
        <time>2021-01-17T09:50:36Z</time>
      </trkpt>
      <trkpt lat="43.41395" lon="3.50828">
        <ele>26.57</ele>
        <time>2021-01-17T09:50:37Z</time>
      </trkpt>
      <trkpt lat="43.41395" lon="3.50828">
        <ele>29.94</ele>
        <time>2021-01-17T09:50:39Z</time>
      </trkpt>
      <trkpt lat="43.41395" lon="3.50828">
        <ele>29.94</ele>
        <time>2021-01-17T09:50:40Z</time>
      </trkpt>
      <trkpt lat="43.41393" lon="3.50829">
        <ele>32.82</ele>
        <time>2021-01-17T09:50:55Z</time>
      </trkpt>
      <trkpt lat="43.41393" lon="3.50828">
        <ele>29.46</ele>
        <time>2021-01-17T09:51:00Z</time>
      </trkpt>
      <trkpt lat="43.41392" lon="3.50826">
        <ele>30.9</ele>
        <time>2021-01-17T09:51:21Z</time>
      </trkpt>
      <trkpt lat="43.41391" lon="3.50817">
        <ele>29.46</ele>
        <time>2021-01-17T09:51:27Z</time>
      </trkpt>
      <trkpt lat="43.41395" lon="3.50785">
        <ele>28.98</ele>
        <time>2021-01-17T09:51:47Z</time>
      </trkpt>
      <trkpt lat="43.41399" lon="3.50751">
        <ele>28.98</ele>
        <time>2021-01-17T09:52:09Z</time>
      </trkpt>
      <trkpt lat="43.414" lon="3.50731">
        <ele>25.13</ele>
        <time>2021-01-17T09:52:21Z</time>
      </trkpt>
      <trkpt lat="43.41401" lon="3.50727">
        <ele>29.46</ele>
        <time>2021-01-17T09:52:24Z</time>
      </trkpt>
      <trkpt lat="43.414" lon="3.50723">
        <ele>29.94</ele>
        <time>2021-01-17T09:52:26Z</time>
      </trkpt>
      <trkpt lat="43.414" lon="3.50718">
        <ele>27.53</ele>
        <time>2021-01-17T09:52:29Z</time>
      </trkpt>
      <trkpt lat="43.41405" lon="3.50686">
        <ele>26.09</ele>
        <time>2021-01-17T09:52:48Z</time>
      </trkpt>
      <trkpt lat="43.414" lon="3.50652">
        <ele>25.13</ele>
        <time>2021-01-17T09:53:08Z</time>
      </trkpt>
      <trkpt lat="43.414" lon="3.50645">
        <ele>26.57</ele>
        <time>2021-01-17T09:53:12Z</time>
      </trkpt>
      <trkpt lat="43.414" lon="3.50609">
        <ele>28.02</ele>
        <time>2021-01-17T09:53:33Z</time>
      </trkpt>
      <trkpt lat="43.41399" lon="3.50573">
        <ele>29.46</ele>
        <time>2021-01-17T09:53:54Z</time>
      </trkpt>
      <trkpt lat="43.41398" lon="3.50559">
        <ele>29.94</ele>
        <time>2021-01-17T09:54:05Z</time>
      </trkpt>
      <trkpt lat="43.41396" lon="3.50534">
        <ele>30.42</ele>
        <time>2021-01-17T09:54:22Z</time>
      </trkpt>
      <trkpt lat="43.41399" lon="3.5052">
        <ele>30.9</ele>
        <time>2021-01-17T09:54:38Z</time>
      </trkpt>
      <trkpt lat="43.414" lon="3.505">
        <ele>31.38</ele>
        <time>2021-01-17T09:54:58Z</time>
      </trkpt>
      <trkpt lat="43.41398" lon="3.50469">
        <ele>32.82</ele>
        <time>2021-01-17T09:55:18Z</time>
      </trkpt>
      <trkpt lat="43.41396" lon="3.50455">
        <ele>33.3</ele>
        <time>2021-01-17T09:55:32Z</time>
      </trkpt>
      <trkpt lat="43.41392" lon="3.50421">
        <ele>35.23</ele>
        <time>2021-01-17T09:55:52Z</time>
      </trkpt>
      <trkpt lat="43.41388" lon="3.50385">
        <ele>36.67</ele>
        <time>2021-01-17T09:56:13Z</time>
      </trkpt>
      <trkpt lat="43.41387" lon="3.50352">
        <ele>39.07</ele>
        <time>2021-01-17T09:56:34Z</time>
      </trkpt>
      <trkpt lat="43.41384" lon="3.50322">
        <ele>39.55</ele>
        <time>2021-01-17T09:56:51Z</time>
      </trkpt>
      <trkpt lat="43.41383" lon="3.50292">
        <ele>40.03</ele>
        <time>2021-01-17T09:57:09Z</time>
      </trkpt>
      <trkpt lat="43.41381" lon="3.50273">
        <ele>40.99</ele>
        <time>2021-01-17T09:57:23Z</time>
      </trkpt>
      <trkpt lat="43.41381" lon="3.5027">
        <ele>40.99</ele>
        <time>2021-01-17T09:57:25Z</time>
      </trkpt>
      <trkpt lat="43.41381" lon="3.50237">
        <ele>41.95</ele>
        <time>2021-01-17T09:57:44Z</time>
      </trkpt>
      <trkpt lat="43.41378" lon="3.50203">
        <ele>41.95</ele>
        <time>2021-01-17T09:58:04Z</time>
      </trkpt>
      <trkpt lat="43.41375" lon="3.50193">
        <ele>41.95</ele>
        <time>2021-01-17T09:58:19Z</time>
      </trkpt>
      <trkpt lat="43.41372" lon="3.50163">
        <ele>40.99</ele>
        <time>2021-01-17T09:58:38Z</time>
      </trkpt>
      <trkpt lat="43.41365" lon="3.50127">
        <ele>40.99</ele>
        <time>2021-01-17T09:59:00Z</time>
      </trkpt>
      <trkpt lat="43.41362" lon="3.5009">
        <ele>40.99</ele>
        <time>2021-01-17T09:59:21Z</time>
      </trkpt>
      <trkpt lat="43.41359" lon="3.50056">
        <ele>40.51</ele>
        <time>2021-01-17T09:59:40Z</time>
      </trkpt>
      <trkpt lat="43.41358" lon="3.50029">
        <ele>40.51</ele>
        <time>2021-01-17T09:59:56Z</time>
      </trkpt>
      <trkpt lat="43.41356" lon="3.49997">
        <ele>40.51</ele>
        <time>2021-01-17T10:00:15Z</time>
      </trkpt>
      <trkpt lat="43.41353" lon="3.4998">
        <ele>40.51</ele>
        <time>2021-01-17T10:00:27Z</time>
      </trkpt>
      <trkpt lat="43.4135" lon="3.49944">
        <ele>40.51</ele>
        <time>2021-01-17T10:00:48Z</time>
      </trkpt>
      <trkpt lat="43.41347" lon="3.49911">
        <ele>40.51</ele>
        <time>2021-01-17T10:01:07Z</time>
      </trkpt>
      <trkpt lat="43.41345" lon="3.49876">
        <ele>40.51</ele>
        <time>2021-01-17T10:01:27Z</time>
      </trkpt>
      <trkpt lat="43.41342" lon="3.49849">
        <ele>40.51</ele>
        <time>2021-01-17T10:01:42Z</time>
      </trkpt>
      <trkpt lat="43.41343" lon="3.49843">
        <ele>40.51</ele>
        <time>2021-01-17T10:01:46Z</time>
      </trkpt>
      <trkpt lat="43.41339" lon="3.49805">
        <ele>40.51</ele>
        <time>2021-01-17T10:02:09Z</time>
      </trkpt>
      <trkpt lat="43.41333" lon="3.49768">
        <ele>40.51</ele>
        <time>2021-01-17T10:02:31Z</time>
      </trkpt>
      <trkpt lat="43.41325" lon="3.4973">
        <ele>40.51</ele>
        <time>2021-01-17T10:02:53Z</time>
      </trkpt>
      <trkpt lat="43.41315" lon="3.4969">
        <ele>40.51</ele>
        <time>2021-01-17T10:03:18Z</time>
      </trkpt>
      <trkpt lat="43.41305" lon="3.49652">
        <ele>40.51</ele>
        <time>2021-01-17T10:03:42Z</time>
      </trkpt>
      <trkpt lat="43.41299" lon="3.49626">
        <ele>40.51</ele>
        <time>2021-01-17T10:03:58Z</time>
      </trkpt>
      <trkpt lat="43.41291" lon="3.49619">
        <ele>41.95</ele>
        <time>2021-01-17T10:04:06Z</time>
      </trkpt>
      <trkpt lat="43.41286" lon="3.49587">
        <ele>42.92</ele>
        <time>2021-01-17T10:04:26Z</time>
      </trkpt>
      <trkpt lat="43.41281" lon="3.49572">
        <ele>42.92</ele>
        <time>2021-01-17T10:04:39Z</time>
      </trkpt>
      <trkpt lat="43.41274" lon="3.49543">
        <ele>43.88</ele>
        <time>2021-01-17T10:04:57Z</time>
      </trkpt>
      <trkpt lat="43.4127" lon="3.49518">
        <ele>43.88</ele>
        <time>2021-01-17T10:05:14Z</time>
      </trkpt>
      <trkpt lat="43.41267" lon="3.49493">
        <ele>43.88</ele>
        <time>2021-01-17T10:05:30Z</time>
      </trkpt>
      <trkpt lat="43.41257" lon="3.49456">
        <ele>44.36</ele>
        <time>2021-01-17T10:05:52Z</time>
      </trkpt>
      <trkpt lat="43.41248" lon="3.4942">
        <ele>44.84</ele>
        <time>2021-01-17T10:06:13Z</time>
      </trkpt>
      <trkpt lat="43.41238" lon="3.49382">
        <ele>45.8</ele>
        <time>2021-01-17T10:06:36Z</time>
      </trkpt>
      <trkpt lat="43.4123" lon="3.49345">
        <ele>47.72</ele>
        <time>2021-01-17T10:06:58Z</time>
      </trkpt>
      <trkpt lat="43.41223" lon="3.49313">
        <ele>48.68</ele>
        <time>2021-01-17T10:07:17Z</time>
      </trkpt>
      <trkpt lat="43.41216" lon="3.49282">
        <ele>49.16</ele>
        <time>2021-01-17T10:07:35Z</time>
      </trkpt>
      <trkpt lat="43.41211" lon="3.49252">
        <ele>49.65</ele>
        <time>2021-01-17T10:07:55Z</time>
      </trkpt>
      <trkpt lat="43.41209" lon="3.49253">
        <ele>49.65</ele>
        <time>2021-01-17T10:08:28Z</time>
      </trkpt>
      <trkpt lat="43.41186" lon="3.49264">
        <ele>49.65</ele>
        <time>2021-01-17T10:08:50Z</time>
      </trkpt>
      <trkpt lat="43.41167" lon="3.49274">
        <ele>49.65</ele>
        <time>2021-01-17T10:09:08Z</time>
      </trkpt>
      <trkpt lat="43.41158" lon="3.49279">
        <ele>49.65</ele>
        <time>2021-01-17T10:09:27Z</time>
      </trkpt>
      <trkpt lat="43.41143" lon="3.49283">
        <ele>49.65</ele>
        <time>2021-01-17T10:09:42Z</time>
      </trkpt>
      <trkpt lat="43.41115" lon="3.49286">
        <ele>50.13</ele>
        <time>2021-01-17T10:10:03Z</time>
      </trkpt>
      <trkpt lat="43.41091" lon="3.49289">
        <ele>51.09</ele>
        <time>2021-01-17T10:10:23Z</time>
      </trkpt>
      <trkpt lat="43.41088" lon="3.49289">
        <ele>51.09</ele>
        <time>2021-01-17T10:10:25Z</time>
      </trkpt>
      <trkpt lat="43.41083" lon="3.49297">
        <ele>51.09</ele>
        <time>2021-01-17T10:10:31Z</time>
      </trkpt>
      <trkpt lat="43.41084" lon="3.49325">
        <ele>51.09</ele>
        <time>2021-01-17T10:10:48Z</time>
      </trkpt>
      <trkpt lat="43.4108" lon="3.49336">
        <ele>51.09</ele>
        <time>2021-01-17T10:10:55Z</time>
      </trkpt>
      <trkpt lat="43.41056" lon="3.49335">
        <ele>52.05</ele>
        <time>2021-01-17T10:11:15Z</time>
      </trkpt>
      <trkpt lat="43.41035" lon="3.4932">
        <ele>52.05</ele>
        <time>2021-01-17T10:11:35Z</time>
      </trkpt>
      <trkpt lat="43.41027" lon="3.49289">
        <ele>52.05</ele>
        <time>2021-01-17T10:11:55Z</time>
      </trkpt>
      <trkpt lat="43.41017" lon="3.49273">
        <ele>50.61</ele>
        <time>2021-01-17T10:12:07Z</time>
      </trkpt>
      <trkpt lat="43.41013" lon="3.49259">
        <ele>50.61</ele>
        <time>2021-01-17T10:12:19Z</time>
      </trkpt>
      <trkpt lat="43.41006" lon="3.49231">
        <ele>50.61</ele>
        <time>2021-01-17T10:12:36Z</time>
      </trkpt>
      <trkpt lat="43.41" lon="3.492">
        <ele>50.61</ele>
        <time>2021-01-17T10:12:56Z</time>
      </trkpt>
      <trkpt lat="43.40989" lon="3.49169">
        <ele>50.61</ele>
        <time>2021-01-17T10:13:16Z</time>
      </trkpt>
      <trkpt lat="43.40979" lon="3.49139">
        <ele>50.61</ele>
        <time>2021-01-17T10:13:35Z</time>
      </trkpt>
      <trkpt lat="43.40971" lon="3.49105">
        <ele>52.05</ele>
        <time>2021-01-17T10:13:55Z</time>
      </trkpt>
      <trkpt lat="43.40972" lon="3.49075">
        <ele>52.53</ele>
        <time>2021-01-17T10:14:12Z</time>
      </trkpt>
      <trkpt lat="43.40973" lon="3.49058">
        <ele>52.53</ele>
        <time>2021-01-17T10:14:22Z</time>
      </trkpt>
      <trkpt lat="43.40976" lon="3.49026">
        <ele>53.01</ele>
        <time>2021-01-17T10:14:40Z</time>
      </trkpt>
      <trkpt lat="43.4098" lon="3.48996">
        <ele>53.97</ele>
        <time>2021-01-17T10:14:58Z</time>
      </trkpt>
      <trkpt lat="43.40982" lon="3.48969">
        <ele>53.97</ele>
        <time>2021-01-17T10:15:14Z</time>
      </trkpt>
      <trkpt lat="43.40984" lon="3.48935">
        <ele>53.97</ele>
        <time>2021-01-17T10:15:33Z</time>
      </trkpt>
      <trkpt lat="43.40986" lon="3.48904">
        <ele>54.45</ele>
        <time>2021-01-17T10:15:51Z</time>
      </trkpt>
      <trkpt lat="43.40985" lon="3.48889">
        <ele>54.45</ele>
        <time>2021-01-17T10:16:08Z</time>
      </trkpt>
      <trkpt lat="43.40984" lon="3.48889">
        <ele>54.45</ele>
        <time>2021-01-17T10:16:40Z</time>
      </trkpt>
      <trkpt lat="43.40981" lon="3.48882">
        <ele>54.45</ele>
        <time>2021-01-17T10:16:57Z</time>
      </trkpt>
      <trkpt lat="43.40977" lon="3.48881">
        <ele>53.01</ele>
        <time>2021-01-17T10:17:01Z</time>
      </trkpt>
      <trkpt lat="43.40954" lon="3.48882">
        <ele>52.53</ele>
        <time>2021-01-17T10:17:25Z</time>
      </trkpt>
      <trkpt lat="43.40955" lon="3.48882">
        <ele>52.05</ele>
        <time>2021-01-17T10:17:52Z</time>
      </trkpt>
      <trkpt lat="43.40942" lon="3.48881">
        <ele>52.05</ele>
        <time>2021-01-17T10:18:18Z</time>
      </trkpt>
      <trkpt lat="43.40914" lon="3.48879">
        <ele>51.57</ele>
        <time>2021-01-17T10:18:42Z</time>
      </trkpt>
      <trkpt lat="43.40883" lon="3.48879">
        <ele>51.09</ele>
        <time>2021-01-17T10:19:05Z</time>
      </trkpt>
      <trkpt lat="43.40851" lon="3.48884">
        <ele>50.61</ele>
        <time>2021-01-17T10:19:30Z</time>
      </trkpt>
      <trkpt lat="43.40827" lon="3.48895">
        <ele>50.13</ele>
        <time>2021-01-17T10:19:50Z</time>
      </trkpt>
      <trkpt lat="43.408" lon="3.4891">
        <ele>50.13</ele>
        <time>2021-01-17T10:20:12Z</time>
      </trkpt>
      <trkpt lat="43.40775" lon="3.48926">
        <ele>50.13</ele>
        <time>2021-01-17T10:20:34Z</time>
      </trkpt>
      <trkpt lat="43.40759" lon="3.48935">
        <ele>50.13</ele>
        <time>2021-01-17T10:20:52Z</time>
      </trkpt>
      <trkpt lat="43.40734" lon="3.48952">
        <ele>50.13</ele>
        <time>2021-01-17T10:21:13Z</time>
      </trkpt>
      <trkpt lat="43.40722" lon="3.48959">
        <ele>51.57</ele>
        <time>2021-01-17T10:21:27Z</time>
      </trkpt>
      <trkpt lat="43.40716" lon="3.48961">
        <ele>52.05</ele>
        <time>2021-01-17T10:21:46Z</time>
      </trkpt>
      <trkpt lat="43.40713" lon="3.48963">
        <ele>52.05</ele>
        <time>2021-01-17T10:22:05Z</time>
      </trkpt>
      <trkpt lat="43.40707" lon="3.48961">
        <ele>52.05</ele>
        <time>2021-01-17T10:22:19Z</time>
      </trkpt>
      <trkpt lat="43.40703" lon="3.4896">
        <ele>52.05</ele>
        <time>2021-01-17T10:22:23Z</time>
      </trkpt>
      <trkpt lat="43.40675" lon="3.48974">
        <ele>52.05</ele>
        <time>2021-01-17T10:22:46Z</time>
      </trkpt>
      <trkpt lat="43.40649" lon="3.4899">
        <ele>51.09</ele>
        <time>2021-01-17T10:23:08Z</time>
      </trkpt>
      <trkpt lat="43.40645" lon="3.48991">
        <ele>50.61</ele>
        <time>2021-01-17T10:23:11Z</time>
      </trkpt>
      <trkpt lat="43.4064" lon="3.48962">
        <ele>50.13</ele>
        <time>2021-01-17T10:23:29Z</time>
      </trkpt>
      <trkpt lat="43.40635" lon="3.48927">
        <ele>48.2</ele>
        <time>2021-01-17T10:23:48Z</time>
      </trkpt>
      <trkpt lat="43.40631" lon="3.48908">
        <ele>47.72</ele>
        <time>2021-01-17T10:24:00Z</time>
      </trkpt>
      <trkpt lat="43.40624" lon="3.48897">
        <ele>47.24</ele>
        <time>2021-01-17T10:24:09Z</time>
      </trkpt>
      <trkpt lat="43.40602" lon="3.48895">
        <ele>46.76</ele>
        <time>2021-01-17T10:24:27Z</time>
      </trkpt>
      <trkpt lat="43.4058" lon="3.489">
        <ele>46.76</ele>
        <time>2021-01-17T10:24:45Z</time>
      </trkpt>
      <trkpt lat="43.40567" lon="3.48903">
        <ele>46.76</ele>
        <time>2021-01-17T10:24:59Z</time>
      </trkpt>
      <trkpt lat="43.40564" lon="3.48899">
        <ele>45.8</ele>
        <time>2021-01-17T10:25:02Z</time>
      </trkpt>
      <trkpt lat="43.40539" lon="3.48904">
        <ele>46.28</ele>
        <time>2021-01-17T10:25:22Z</time>
      </trkpt>
      <trkpt lat="43.40514" lon="3.48906">
        <ele>46.28</ele>
        <time>2021-01-17T10:25:42Z</time>
      </trkpt>
      <trkpt lat="43.40488" lon="3.48908">
        <ele>46.28</ele>
        <time>2021-01-17T10:26:02Z</time>
      </trkpt>
      <trkpt lat="43.4046" lon="3.4891">
        <ele>47.72</ele>
        <time>2021-01-17T10:26:23Z</time>
      </trkpt>
      <trkpt lat="43.40435" lon="3.48911">
        <ele>48.2</ele>
        <time>2021-01-17T10:26:44Z</time>
      </trkpt>
      <trkpt lat="43.40403" lon="3.48913">
        <ele>48.2</ele>
        <time>2021-01-17T10:27:08Z</time>
      </trkpt>
      <trkpt lat="43.40378" lon="3.4891">
        <ele>48.2</ele>
        <time>2021-01-17T10:27:27Z</time>
      </trkpt>
      <trkpt lat="43.40353" lon="3.48907">
        <ele>48.68</ele>
        <time>2021-01-17T10:27:46Z</time>
      </trkpt>
      <trkpt lat="43.40331" lon="3.48901">
        <ele>48.68</ele>
        <time>2021-01-17T10:28:03Z</time>
      </trkpt>
      <trkpt lat="43.40308" lon="3.489">
        <ele>48.68</ele>
        <time>2021-01-17T10:28:21Z</time>
      </trkpt>
      <trkpt lat="43.40287" lon="3.48899">
        <ele>47.24</ele>
        <time>2021-01-17T10:28:37Z</time>
      </trkpt>
      <trkpt lat="43.40265" lon="3.489">
        <ele>47.72</ele>
        <time>2021-01-17T10:28:56Z</time>
      </trkpt>
      <trkpt lat="43.40243" lon="3.48902">
        <ele>47.72</ele>
        <time>2021-01-17T10:29:13Z</time>
      </trkpt>
      <trkpt lat="43.40219" lon="3.48904">
        <ele>47.72</ele>
        <time>2021-01-17T10:29:32Z</time>
      </trkpt>
      <trkpt lat="43.40201" lon="3.48904">
        <ele>47.72</ele>
        <time>2021-01-17T10:29:49Z</time>
      </trkpt>
      <trkpt lat="43.40202" lon="3.48904">
        <ele>47.72</ele>
        <time>2021-01-17T10:30:13Z</time>
      </trkpt>
      <trkpt lat="43.402" lon="3.48903">
        <ele>47.72</ele>
        <time>2021-01-17T10:30:36Z</time>
      </trkpt>
      <trkpt lat="43.40197" lon="3.48904">
        <ele>47.72</ele>
        <time>2021-01-17T10:30:45Z</time>
      </trkpt>
      <trkpt lat="43.40191" lon="3.48905">
        <ele>47.72</ele>
        <time>2021-01-17T10:30:50Z</time>
      </trkpt>
      <trkpt lat="43.40166" lon="3.48907">
        <ele>47.72</ele>
        <time>2021-01-17T10:31:10Z</time>
      </trkpt>
      <trkpt lat="43.4014" lon="3.48906">
        <ele>47.72</ele>
        <time>2021-01-17T10:31:30Z</time>
      </trkpt>
      <trkpt lat="43.40119" lon="3.48907">
        <ele>47.72</ele>
        <time>2021-01-17T10:31:47Z</time>
      </trkpt>
      <trkpt lat="43.40098" lon="3.48908">
        <ele>47.72</ele>
        <time>2021-01-17T10:32:03Z</time>
      </trkpt>
      <trkpt lat="43.40074" lon="3.48906">
        <ele>47.72</ele>
        <time>2021-01-17T10:32:22Z</time>
      </trkpt>
      <trkpt lat="43.40047" lon="3.48898">
        <ele>47.72</ele>
        <time>2021-01-17T10:32:42Z</time>
      </trkpt>
      <trkpt lat="43.40019" lon="3.48888">
        <ele>49.16</ele>
        <time>2021-01-17T10:33:05Z</time>
      </trkpt>
      <trkpt lat="43.39997" lon="3.4888">
        <ele>49.16</ele>
        <time>2021-01-17T10:33:22Z</time>
      </trkpt>
      <trkpt lat="43.39973" lon="3.48874">
        <ele>48.2</ele>
        <time>2021-01-17T10:33:40Z</time>
      </trkpt>
      <trkpt lat="43.39947" lon="3.48874">
        <ele>46.76</ele>
        <time>2021-01-17T10:34:00Z</time>
      </trkpt>
      <trkpt lat="43.3992" lon="3.48877">
        <ele>45.8</ele>
        <time>2021-01-17T10:34:21Z</time>
      </trkpt>
      <trkpt lat="43.39894" lon="3.48883">
        <ele>44.84</ele>
        <time>2021-01-17T10:34:41Z</time>
      </trkpt>
      <trkpt lat="43.39872" lon="3.48889">
        <ele>43.88</ele>
        <time>2021-01-17T10:34:59Z</time>
      </trkpt>
      <trkpt lat="43.39844" lon="3.48896">
        <ele>43.4</ele>
        <time>2021-01-17T10:35:20Z</time>
      </trkpt>
      <trkpt lat="43.39824" lon="3.48904">
        <ele>42.92</ele>
        <time>2021-01-17T10:35:37Z</time>
      </trkpt>
      <trkpt lat="43.39799" lon="3.48912">
        <ele>42.44</ele>
        <time>2021-01-17T10:35:57Z</time>
      </trkpt>
      <trkpt lat="43.39771" lon="3.48924">
        <ele>42.44</ele>
        <time>2021-01-17T10:36:20Z</time>
      </trkpt>
      <trkpt lat="43.39739" lon="3.4893">
        <ele>41.47</ele>
        <time>2021-01-17T10:36:45Z</time>
      </trkpt>
      <trkpt lat="43.39716" lon="3.48935">
        <ele>41.47</ele>
        <time>2021-01-17T10:37:04Z</time>
      </trkpt>
    </trkseg>
  </trk>
</gpx>